Time;durP1;ratioP1;P1;durP2;ratioP2;P2;SDS_P1;SDS_P2;PMS_P1;PMS_P2;Temp;Humidity;BMP_temperature;BMP_pressure;BME280_temperature;BME280_humidity;BME280_pressure;Samples;Min_cycle;Max_cycle;Signal;HPM_P1;HPM_P2
2021/03/21 00:01:12;;;;;;;18.33;14.38;;;8.40;99.90;;;;;;5054122;28;20172;-73
2021/03/21 00:03:37;;;;;;;19.23;14.65;;;8.40;99.90;;;;;;5035998;28;20210;-74
2021/03/21 00:06:04;;;;;;;16.20;13.73;;;8.40;99.90;;;;;;5052053;28;20524;-75
2021/03/21 00:08:31;;;;;;;19.45;14.25;;;8.60;99.90;;;;;;5016159;28;20163;-74
2021/03/21 00:11:05;;;;;;;14.90;13.07;;;8.60;99.90;;;;;;5033926;28;20266;-73
2021/03/21 00:13:31;;;;;;;14.75;13.15;;;8.60;99.90;;;;;;5033877;28;20234;-74
2021/03/21 00:15:59;;;;;;;17.65;14.05;;;8.70;99.90;;;;;;5038570;28;20257;-74
2021/03/21 00:18:28;;;;;;;20.98;13.98;;;8.80;99.90;;;;;;5035790;28;20178;-74
2021/03/21 00:20:54;;;;;;;16.38;13.43;;;8.90;99.90;;;;;;5035104;28;20203;-74
2021/03/21 00:23:21;;;;;;;18.08;13.98;;;8.90;99.90;;;;;;5018993;28;20694;-74
2021/03/21 00:25:48;;;;;;;15.63;13.55;;;8.90;99.90;;;;;;5052518;28;20664;-74
2021/03/21 00:28:17;;;;;;;15.27;13.35;;;8.80;99.90;;;;;;5053107;28;20179;-73
2021/03/21 00:30:44;;;;;;;15.20;13.57;;;8.70;99.90;;;;;;5053401;28;20167;-74
2021/03/21 00:33:12;;;;;;;15.75;13.68;;;8.80;99.90;;;;;;5035264;28;20183;-74
2021/03/21 00:35:38;;;;;;;15.13;13.50;;;8.80;99.90;;;;;;5035478;28;20167;-74
2021/03/21 00:38:15;;;;;;;15.35;13.75;;;8.90;99.90;;;;;;5035166;28;20167;-74
2021/03/21 00:40:41;;;;;;;17.02;13.77;;;8.80;99.90;;;;;;5053400;28;20163;-74
2021/03/21 00:43:07;;;;;;;18.48;14.90;;;8.90;99.90;;;;;;5035264;28;20207;-74
2021/03/21 00:45:32;;;;;;;18.83;15.15;;;8.90;99.90;;;;;;5053061;28;20246;-74
2021/03/21 00:47:58;;;;;;;16.55;13.95;;;9.00;99.90;;;;;;5052791;28;20171;-74
2021/03/21 00:50:32;;;;;;;16.98;14.65;;;9.10;99.90;;;;;;5035425;28;20171;-74
2021/03/21 00:52:58;;;;;;;25.58;15.20;;;9.00;99.90;;;;;;5053346;28;20159;-74
2021/03/21 00:55:24;;;;;;;23.00;15.02;;;8.90;99.90;;;;;;5052326;28;20171;-74
2021/03/21 00:57:49;;;;;;;17.05;14.38;;;8.80;99.90;;;;;;5052508;28;20528;-74
2021/03/21 01:00:30;;;;;;;18.58;14.48;;;8.80;99.90;;;;;;5053023;28;20179;-74
2021/03/21 01:02:56;;;;;;;21.38;15.27;;;8.80;99.90;;;;;;5035339;28;20203;-74
2021/03/21 01:05:42;;;;;;;20.48;15.18;;;8.80;99.90;;;;;;5053197;28;20167;-74
2021/03/21 01:08:18;;;;;;;21.58;15.45;;;8.80;99.90;;;;;;5035162;28;20179;-74
2021/03/21 01:10:45;;;;;;;20.08;16.02;;;8.80;99.90;;;;;;5052805;28;20681;-73
2021/03/21 01:13:11;;;;;;;22.63;16.17;;;8.90;99.90;;;;;;5052924;28;20222;-74
2021/03/21 01:15:38;;;;;;;17.20;14.63;;;8.90;99.90;;;;;;5018795;28;20196;-74
2021/03/21 01:18:04;;;;;;;18.77;15.20;;;8.90;99.90;;;;;;5053069;28;20174;-74
2021/03/21 01:20:33;;;;;;;23.45;15.73;;;8.80;99.90;;;;;;5034796;28;20516;-74
2021/03/21 01:22:59;;;;;;;20.90;15.70;;;8.80;99.90;;;;;;5035022;28;20199;-74
2021/03/21 01:25:26;;;;;;;18.25;15.63;;;8.90;99.90;;;;;;5034764;28;20229;-74
2021/03/21 01:27:54;;;;;;;18.20;14.52;;;8.80;99.90;;;;;;5052335;28;20257;-74
2021/03/21 01:30:24;;;;;;;21.13;15.73;;;8.80;99.90;;;;;;5034708;28;20534;-74
2021/03/21 01:32:54;;;;;;;18.75;15.25;;;8.70;99.90;;;;;;5052796;28;20191;-74
2021/03/21 01:35:21;;;;;;;21.83;15.63;;;8.70;99.90;;;;;;5053217;28;20164;-74
2021/03/21 01:37:48;;;;;;;21.60;15.45;;;8.60;99.90;;;;;;5053455;28;20254;-74
2021/03/21 01:40:17;;;;;;;23.02;17.02;;;8.60;99.90;;;;;;5055981;28;20179;-74
2021/03/21 01:42:46;;;;;;;21.98;17.25;;;8.70;99.90;;;;;;5038361;28;20199;-74
2021/03/21 01:45:30;;;;;;;21.60;16.83;;;8.80;99.90;;;;;;5038670;28;20600;-74
2021/03/21 01:47:57;;;;;;;22.88;15.15;;;8.80;99.90;;;;;;5038297;28;20183;-74
2021/03/21 01:50:55;;;;;;;20.17;16.45;;;8.80;99.90;;;;;;5056164;28;20171;-74
2021/03/21 01:53:23;;;;;;;22.00;15.80;;;8.80;99.90;;;;;;5001014;28;20187;-74
2021/03/21 01:55:52;;;;;;;21.92;16.33;;;8.80;99.90;;;;;;5037764;28;20179;-74
2021/03/21 01:58:20;;;;;;;22.75;17.33;;;8.80;99.90;;;;;;5056226;28;20167;-74
2021/03/21 02:00:47;;;;;;;21.73;17.17;;;8.80;99.90;;;;;;5055914;28;20167;-74
2021/03/21 02:03:14;;;;;;;22.02;17.08;;;8.80;99.90;;;;;;5054844;28;20603;-74
2021/03/21 02:05:44;;;;;;;22.30;16.80;;;8.90;99.90;;;;;;5056085;28;20168;-74
2021/03/21 02:08:41;;;;;;;19.20;16.30;;;9.00;99.90;;;;;;5037962;28;20171;-75
2021/03/21 02:11:31;;;;;;;27.10;16.52;;;9.00;99.90;;;;;;5036183;28;20164;-75
2021/03/21 02:14:13;;;;;;;28.70;17.98;;;9.00;99.90;;;;;;5055313;28;20178;-74
2021/03/21 02:16:49;;;;;;;21.95;17.65;;;8.90;99.90;;;;;;5037944;28;20564;-73
2021/03/21 02:19:21;;;;;;;25.42;19.20;;;9.00;99.90;;;;;;5055803;28;20233;-74
2021/03/21 02:21:57;;;;;;;28.10;19.05;;;8.90;99.90;;;;;;5054257;28;20182;-74
2021/03/21 02:25:06;;;;;;;26.40;18.90;;;8.80;99.90;;;;;;5054494;28;20187;-75
2021/03/21 02:27:41;;;;;;;26.77;18.65;;;8.80;99.90;;;;;;5036100;28;20620;-75
2021/03/21 02:30:22;;;;;;;26.83;18.60;;;8.70;99.90;;;;;;5035746;28;20180;-74
2021/03/21 02:33:13;;;;;;;30.38;18.20;;;8.70;99.90;;;;;;5039812;28;20281;-74
2021/03/21 02:35:54;;;;;;;27.98;19.52;;;8.80;99.90;;;;;;5055486;28;20152;-74
2021/03/21 02:38:30;;;;;;;31.45;19.70;;;8.70;99.90;;;;;;5055518;28;20191;-75
2021/03/21 02:41:00;;;;;;;35.58;21.42;;;8.70;99.90;;;;;;5037628;28;20233;-76
2021/03/21 02:43:49;;;;;;;34.13;21.75;;;8.70;99.90;;;;;;5054786;28;20278;-74
2021/03/21 02:46:35;;;;;;;31.05;20.27;;;8.70;99.90;;;;;;5037380;28;20172;-74
2021/03/21 02:49:27;;;;;;;36.20;22.15;;;8.70;99.90;;;;;;5037134;28;20255;-74
2021/03/21 02:52:02;;;;;;;36.92;22.58;;;8.80;99.90;;;;;;5054312;28;20245;-74
2021/03/21 02:54:27;;;;;;;34.75;22.35;;;8.80;99.90;;;;;;5036772;28;20163;-74
2021/03/21 02:57:07;;;;;;;38.67;23.42;;;8.80;99.90;;;;;;5036812;28;20266;-74
2021/03/21 02:59:37;;;;;;;36.55;21.80;;;8.90;99.90;;;;;;5055207;28;20152;-75
2021/03/21 03:02:13;;;;;;;37.25;22.70;;;9.00;99.90;;;;;;5055059;28;20167;-75
2021/03/21 03:04:47;;;;;;;38.58;23.50;;;9.00;99.90;;;;;;5054563;28;20204;-74
2021/03/21 03:07:28;;;;;;;38.58;22.92;;;9.10;99.90;;;;;;5055044;28;20547;-75
2021/03/21 03:10:05;;;;;;;37.35;22.73;;;9.00;99.90;;;;;;5054886;28;20151;-75
2021/03/21 03:12:35;;;;;;;39.90;23.02;;;8.90;99.90;;;;;;5054970;28;20155;-74
2021/03/21 03:15:14;;;;;;;39.63;22.08;;;8.90;99.90;;;;;;5054743;28;20179;-74
2021/03/21 03:17:59;;;;;;;36.15;22.25;;;8.90;99.90;;;;;;5055002;28;20174;-74
2021/03/21 03:21:14;;;;;;;41.97;24.23;;;8.80;99.90;;;;;;5054723;28;20168;-75
2021/03/21 03:23:46;;;;;;;34.88;21.73;;;8.80;99.90;;;;;;5009091;28;20214;-74
2021/03/21 03:26:24;;;;;;;39.00;24.23;;;8.90;99.90;;;;;;5036077;28;20178;-74
2021/03/21 03:29:25;;;;;;;42.50;25.63;;;8.80;99.90;;;;;;5054697;28;20171;-74
2021/03/21 03:31:56;;;;;;;46.30;25.27;;;8.80;99.90;;;;;;5053846;28;20531;-75
2021/03/21 03:34:23;;;;;;;43.05;24.98;;;8.80;99.90;;;;;;5054098;28;20538;-75
2021/03/21 03:36:48;;;;;;;41.40;24.23;;;8.90;99.90;;;;;;5054135;28;20167;-74
2021/03/21 03:39:14;;;;;;;44.00;24.05;;;8.90;99.90;;;;;;5054312;28;20233;-75
2021/03/21 03:41:50;;;;;;;50.55;26.10;;;8.90;99.90;;;;;;5020055;28;20651;-75
2021/03/21 03:44:29;;;;;;;41.95;25.45;;;9.00;99.90;;;;;;5054194;28;20635;-74
2021/03/21 03:47:13;;;;;;;41.50;24.65;;;9.00;99.90;;;;;;5035497;28;20233;-74
2021/03/21 03:49:50;;;;;;;39.67;24.77;;;8.90;99.90;;;;;;5036507;28;20254;-74
2021/03/21 03:52:40;;;;;;;43.55;25.67;;;8.90;99.90;;;;;;5054102;28;20251;-74
2021/03/21 03:55:31;;;;;;;40.63;24.27;;;8.90;99.90;;;;;;5054294;28;20167;-74
2021/03/21 03:58:31;;;;;;;40.67;24.33;;;8.90;99.90;;;;;;5053732;28;20167;-74
2021/03/21 04:01:29;;;;;;;45.70;25.42;;;8.90;99.90;;;;;;5029591;28;20639;-74
2021/03/21 04:04:09;;;;;;;44.47;25.17;;;8.90;99.90;;;;;;5024227;28;20214;-74
2021/03/21 04:06:41;;;;;;;39.55;23.98;;;8.90;99.90;;;;;;5053877;28;20203;-75
2021/03/21 04:09:32;;;;;;;40.60;24.40;;;8.90;99.90;;;;;;5053536;28;20160;-74
2021/03/21 04:12:07;;;;;;;41.00;23.77;;;9.00;99.90;;;;;;5053814;28;20143;-74
2021/03/21 04:15:11;;;;;;;44.70;25.85;;;9.10;99.90;;;;;;5035730;28;20159;-74
2021/03/21 04:17:41;;;;;;;43.88;25.15;;;9.10;99.90;;;;;;5018417;28;20186;-74
2021/03/21 04:20:18;;;;;;;39.40;24.20;;;9.10;99.90;;;;;;5053363;28;20170;-74
2021/03/21 04:22:52;;;;;;;48.53;25.30;;;9.20;99.90;;;;;;5035767;28;20215;-74
2021/03/21 04:25:23;;;;;;;42.92;23.92;;;9.10;99.90;;;;;;5035814;28;20163;-74
2021/03/21 04:27:58;;;;;;;44.05;24.15;;;9.10;99.90;;;;;;5035128;28;20626;-75
2021/03/21 04:30:34;;;;;;;41.42;24.70;;;9.10;99.90;;;;;;5053003;28;20173;-75
2021/03/21 04:33:02;;;;;;;43.25;24.65;;;9.20;99.90;;;;;;5053563;28;20197;-75
2021/03/21 04:35:36;;;;;;;49.55;28.05;;;9.20;99.90;;;;;;5053525;28;20198;-74
2021/03/21 04:38:10;;;;;;;47.95;26.42;;;9.20;99.90;;;;;;5053173;28;20170;-75
2021/03/21 04:40:37;;;;;;;45.08;27.02;;;9.10;99.90;;;;;;5053145;28;20159;-75
2021/03/21 04:43:11;;;;;;;46.80;26.60;;;9.10;99.90;;;;;;5053236;28;20199;-75
2021/03/21 04:45:45;;;;;;;56.55;28.10;;;9.20;99.90;;;;;;5035052;28;20541;-75
2021/03/21 04:48:17;;;;;;;47.97;26.77;;;9.30;99.90;;;;;;5053298;28;20170;-74
2021/03/21 04:50:42;;;;;;;59.10;28.80;;;9.30;99.90;;;;;;5053098;28;20519;-75
2021/03/21 04:53:39;;;;;;;53.28;28.42;;;9.40;99.90;;;;;;5053135;28;20175;-74
2021/03/21 04:56:30;;;;;;;55.00;29.02;;;9.50;99.90;;;;;;5033273;28;20199;-75
2021/03/21 04:59:14;;;;;;;53.20;28.85;;;9.60;99.90;;;;;;5049028;28;20163;-74
2021/03/21 05:01:59;;;;;;;57.67;30.17;;;9.60;99.90;;;;;;5053038;28;20171;-75
2021/03/21 05:04:31;;;;;;;57.67;29.55;;;9.50;99.90;;;;;;5035436;28;20176;-75
2021/03/21 05:07:03;;;;;;;61.13;32.38;;;9.60;99.90;;;;;;5053191;28;20215;-74
2021/03/21 05:09:36;;;;;;;59.70;30.40;;;9.70;99.90;;;;;;5053074;28;20163;-74
2021/03/21 05:12:11;;;;;;;56.92;30.20;;;9.80;99.90;;;;;;5036119;28;20187;-74
2021/03/21 05:14:42;;;;;;;62.95;30.63;;;9.80;99.90;;;;;;5037176;28;20239;-75
2021/03/21 05:17:31;;;;;;;59.38;32.40;;;9.80;99.90;;;;;;5052176;28;20159;-74
2021/03/21 05:20:06;;;;;;;56.95;29.95;;;9.80;99.90;;;;;;5010546;28;20266;-75
2021/03/21 05:22:40;;;;;;;64.70;29.77;;;9.90;99.90;;;;;;5038753;28;20191;-74
2021/03/21 05:25:13;;;;;;;64.28;32.08;;;9.90;99.90;;;;;;5037737;28;20577;-74
2021/03/21 05:27:43;;;;;;;65.95;33.42;;;10.00;99.90;;;;;;5038408;28;20526;-75
2021/03/21 05:30:15;;;;;;;62.83;32.88;;;10.00;99.90;;;;;;5038849;28;20262;-75
2021/03/21 05:32:42;;;;;;;58.78;32.75;;;10.00;99.90;;;;;;5056544;28;20551;-74
2021/03/21 05:35:10;;;;;;;60.83;32.92;;;10.00;99.90;;;;;;5056224;28;20183;-74
2021/03/21 05:37:54;;;;;;;64.78;34.47;;;10.10;99.90;;;;;;5056529;28;20178;-75
2021/03/21 05:40:53;;;;;;;66.07;34.63;;;10.00;99.90;;;;;;5056595;28;20190;-74
2021/03/21 05:43:37;;;;;;;60.75;31.42;;;10.00;99.90;;;;;;5038467;28;20199;-74
2021/03/21 05:46:25;;;;;;;58.80;32.15;;;9.80;99.90;;;;;;5051205;28;20582;-75
2021/03/21 05:49:00;;;;;;;70.88;33.28;;;9.60;99.90;;;;;;5056326;28;20156;-75
2021/03/21 05:51:35;;;;;;;72.75;34.78;;;9.40;99.90;;;;;;5038843;28;20216;-75
2021/03/21 05:54:03;;;;;;;61.60;33.53;;;9.40;99.90;;;;;;5056082;28;20175;-74
2021/03/21 05:56:56;;;;;;;68.63;33.63;;;9.40;99.90;;;;;;5056019;28;20183;-75
2021/03/21 05:59:59;;;;;;;67.28;31.70;;;9.30;99.90;;;;;;5038023;28;20683;-74
2021/03/21 06:02:28;;;;;;;66.22;34.25;;;9.30;99.90;;;;;;5055754;28;20195;-75
2021/03/21 06:05:15;;;;;;;74.38;34.80;;;9.20;99.90;;;;;;5056108;28;20178;-74
2021/03/21 06:08:08;;;;;;;81.72;37.05;;;9.30;99.90;;;;;;5055789;28;20205;-75
2021/03/21 06:10:56;;;;;;;69.65;35.65;;;9.40;99.90;;;;;;5038323;28;20163;-74
2021/03/21 06:13:47;;;;;;;76.15;36.97;;;9.50;99.90;;;;;;5038062;28;20635;-74
2021/03/21 06:16:32;;;;;;;69.55;35.53;;;9.60;99.90;;;;;;5055385;28;20242;-75
2021/03/21 06:19:40;;;;;;;61.17;32.75;;;9.70;99.90;;;;;;5037846;28;20163;-74
2021/03/21 06:22:44;;;;;;;67.72;34.30;;;9.90;99.90;;;;;;4991987;28;20244;-74
2021/03/21 06:25:32;;;;;;;64.55;33.28;;;10.00;99.90;;;;;;5054449;28;20222;-74
2021/03/21 06:28:21;;;;;;;73.15;33.65;;;10.20;99.90;;;;;;5037963;28;20631;-75
2021/03/21 06:30:53;;;;;;;64.90;33.88;;;10.20;99.90;;;;;;5037391;28;20543;-74
2021/03/21 06:33:29;;;;;;;62.22;33.70;;;10.30;99.90;;;;;;5054813;28;20187;-75
2021/03/21 06:36:21;;;;;;;63.30;32.83;;;10.30;99.90;;;;;;5035448;28;20160;-74
2021/03/21 06:39:14;;;;;;;54.88;32.13;;;10.40;99.90;;;;;;5035270;28;20192;-74
2021/03/21 06:41:48;;;;;;;58.42;31.75;;;10.40;99.90;;;;;;5055578;28;20164;-75
2021/03/21 06:44:26;;;;;;;58.40;32.55;;;10.20;99.90;;;;;;5037237;28;20369;-74
2021/03/21 06:46:54;;;;;;;58.58;33.10;;;10.10;99.90;;;;;;5037327;28;20182;-76
2021/03/21 06:49:20;;;;;;;57.53;34.00;;;9.90;99.90;;;;;;5055057;28;20178;-75
2021/03/21 06:52:16;;;;;;;64.43;34.45;;;9.80;99.90;;;;;;5055422;28;20171;-74
2021/03/21 06:54:51;;;;;;;60.35;34.92;;;9.80;99.90;;;;;;5037214;28;20250;-75
2021/03/21 06:57:28;;;;;;;58.10;34.17;;;9.90;99.90;;;;;;5017428;28;20171;-75
2021/03/21 07:00:29;;;;;;;65.25;35.28;;;10.00;99.90;;;;;;5050760;28;20175;-74
2021/03/21 07:03:28;;;;;;;56.85;33.20;;;10.00;99.90;;;;;;5054786;28;20205;-75
2021/03/21 07:06:27;;;;;;;58.53;33.97;;;10.10;99.90;;;;;;5054417;28;20167;-75
2021/03/21 07:09:26;;;;;;;57.22;33.15;;;10.20;99.90;;;;;;5053905;28;20178;-74
2021/03/21 07:12:05;;;;;;;61.20;32.90;;;10.20;99.90;;;;;;5054618;28;20171;-74
2021/03/21 07:14:53;;;;;;;52.47;31.65;;;10.20;99.90;;;;;;5037005;28;20167;-75
2021/03/21 07:17:53;;;;;;;54.95;32.58;;;10.30;99.90;;;;;;5052704;28;20175;-74
2021/03/21 07:20:44;;;;;;;52.17;32.95;;;10.30;99.90;;;;;;5036289;28;20175;-74
2021/03/21 07:23:31;;;;;;;48.75;30.30;;;10.10;99.90;;;;;;5016929;28;20200;-74
2021/03/21 07:26:14;;;;;;;51.42;28.10;;;10.10;99.90;;;;;;5034378;28;20621;-75
2021/03/21 07:28:52;;;;;;;35.63;24.67;;;10.00;99.90;;;;;;5025967;28;20686;-74
2021/03/21 07:31:26;;;;;;;37.25;22.70;;;9.90;99.90;;;;;;5035764;28;20180;-74
2021/03/21 07:34:01;;;;;;;28.52;20.92;;;10.00;99.90;;;;;;5036099;28;20194;-74
2021/03/21 07:36:32;;;;;;;33.30;19.90;;;10.10;99.90;;;;;;5035208;28;20170;-74
2021/03/21 07:39:15;;;;;;;25.75;17.30;;;10.10;99.90;;;;;;5053905;28;20226;-75
2021/03/21 07:42:19;;;;;;;23.40;16.42;;;10.10;99.90;;;;;;5035957;28;20171;-74
2021/03/21 07:45:18;;;;;;;20.65;14.55;;;10.30;99.90;;;;;;4993173;28;20597;-74
2021/03/21 07:48:13;;;;;;;19.45;11.07;;;10.50;99.90;;;;;;5016679;28;20204;-74
2021/03/21 07:51:00;;;;;;;10.32;8.68;;;10.80;99.90;;;;;;5030259;28;20179;-74
2021/03/21 07:53:33;;;;;;;11.00;5.95;;;11.00;99.90;;;;;;5054059;28;20255;-74
2021/03/21 07:56:42;;;;;;;10.90;5.28;;;10.90;99.90;;;;;;5054119;28;20159;-74
2021/03/21 07:59:13;;;;;;;8.63;5.22;;;11.10;99.90;;;;;;4952835;28;20252;-75
2021/03/21 08:01:39;;;;;;;12.00;5.60;;;10.40;99.90;;;;;;4953223;29;20179;-74
2021/03/21 08:04:22;;;;;;;12.73;4.43;;;10.50;99.90;;;;;;4996141;28;20645;-75
2021/03/21 08:07:02;;;;;;;8.13;3.92;;;10.50;99.90;;;;;;5034023;28;20726;-74
2021/03/21 08:09:34;;;;;;;8.07;3.60;;;10.60;99.90;;;;;;5016198;28;20221;-74
2021/03/21 08:12:18;;;;;;;6.57;3.63;;;10.40;99.90;;;;;;5037949;28;20353;-74
2021/03/21 08:14:50;;;;;;;7.93;4.10;;;10.30;99.90;;;;;;5035869;28;20211;-75
2021/03/21 08:17:24;;;;;;;11.48;3.60;;;10.40;99.90;;;;;;5035688;28;20175;-74
2021/03/21 08:19:56;;;;;;;10.98;3.45;;;10.50;99.90;;;;;;5053738;28;20152;-74
2021/03/21 08:22:24;;;;;;;6.88;3.22;;;10.70;99.90;;;;;;5053180;28;20207;-76
2021/03/21 08:24:54;;;;;;;10.32;3.08;;;10.70;99.90;;;;;;5053443;28;20194;-74
2021/03/21 08:27:25;;;;;;;7.90;3.20;;;10.80;99.90;;;;;;5035697;28;20543;-75
2021/03/21 08:30:04;;;;;;;12.93;2.92;;;10.30;99.90;;;;;;5035193;28;20623;-74
2021/03/21 08:32:32;;;;;;;11.00;2.90;;;10.30;99.90;;;;;;5035602;28;20273;-75
2021/03/21 08:35:23;;;;;;;7.45;2.85;;;10.40;99.90;;;;;;5052766;28;20171;-75
2021/03/21 08:37:52;;;;;;;11.73;3.75;;;10.40;99.90;;;;;;5053390;28;20155;-74
2021/03/21 08:40:34;;;;;;;6.53;3.35;;;10.50;99.90;;;;;;5035162;28;20173;-74
2021/03/21 08:43:11;;;;;;;9.00;3.85;;;11.00;99.90;;;;;;5035198;28;20312;-74
2021/03/21 08:46:15;;;;;;;15.57;3.10;;;11.60;99.90;;;;;;5031726;28;20259;-74
2021/03/21 08:48:41;;;;;;;17.38;2.92;;;12.10;99.90;;;;;;5039963;28;20151;-74
2021/03/21 08:51:13;;;;;;;8.63;3.13;;;12.70;99.90;;;;;;5047296;28;20174;-74
2021/03/21 08:53:54;;;;;;;8.68;2.75;;;13.40;99.90;;;;;;5041465;28;20542;-74
2021/03/21 08:56:26;;;;;;;16.67;3.53;;;13.90;99.90;;;;;;5039723;28;20509;-75
2021/03/21 08:59:20;;;;;;;8.70;3.05;;;14.00;99.90;;;;;;5040279;28;20163;-75
2021/03/21 09:02:02;;;;;;;8.90;2.55;;;13.90;99.90;;;;;;5029981;28;20199;-76
2021/03/21 09:04:29;;;;;;;5.70;2.63;;;13.70;99.90;;;;;;5041973;28;20194;-74
2021/03/21 09:07:11;;;;;;;7.18;2.95;;;13.40;99.90;;;;;;5041666;28;20196;-74
2021/03/21 09:09:38;;;;;;;9.50;2.67;;;12.60;99.90;;;;;;5044250;28;20678;-74
2021/03/21 09:12:22;;;;;;;7.05;2.50;;;12.30;99.90;;;;;;5059767;28;20167;-75
2021/03/21 09:14:50;;;;;;;3.60;2.40;;;12.20;99.90;;;;;;5053224;28;20187;-75
2021/03/21 09:17:25;;;;;;;6.47;2.17;;;12.20;99.90;;;;;;5040922;28;20179;-74
2021/03/21 09:19:59;;;;;;;9.65;2.33;;;12.10;99.90;;;;;;5059903;28;20160;-75
2021/03/21 09:22:39;;;;;;;7.47;2.47;;;11.80;99.90;;;;;;5041295;28;20179;-75
2021/03/21 09:25:33;;;;;;;7.13;1.98;;;11.40;99.90;;;;;;5059211;28;20162;-74
2021/03/21 09:27:59;;;;;;;11.15;2.97;;;11.00;99.90;;;;;;5025056;28;20196;-74
2021/03/21 09:30:41;;;;;;;6.35;2.28;;;11.20;99.90;;;;;;5051907;28;20524;-74
2021/03/21 09:33:13;;;;;;;9.82;2.53;;;11.90;99.90;;;;;;5041440;28;20195;-74
2021/03/21 09:36:11;;;;;;;6.18;2.13;;;12.70;99.90;;;;;;5059193;28;20246;-76
2021/03/21 09:39:08;;;;;;;5.75;1.92;;;13.20;99.90;;;;;;5058633;28;20619;-75
2021/03/21 09:41:34;;;;;;;10.07;2.15;;;13.30;99.90;;;;;;5054267;28;20262;-74
2021/03/21 09:44:14;;;;;;;7.68;1.83;;;13.10;99.90;;;;;;5024884;28;20230;-74
2021/03/21 09:46:57;;;;;;;8.48;1.85;;;12.60;99.90;;;;;;5040513;28;20178;-75
2021/03/21 09:49:45;;;;;;;18.45;1.88;;;12.30;99.90;;;;;;5058738;28;20177;-75
2021/03/21 09:52:14;;;;;;;14.50;2.78;;;12.10;99.90;;;;;;5041191;28;20167;-75
2021/03/21 09:55:05;;;;;;;16.30;2.63;;;12.10;99.90;;;;;;5040771;28;20172;-74
2021/03/21 09:57:59;;;;;;;11.27;2.47;;;12.10;99.90;;;;;;5058786;28;20167;-76
2021/03/21 10:00:29;;;;;;;5.10;2.05;;;12.40;99.90;;;;;;5035241;28;20294;-74
2021/03/21 10:03:05;;;;;;;10.70;2.60;;;12.20;99.90;;;;;;5035811;28;20208;-74
2021/03/21 10:05:59;;;;;;;6.55;2.35;;;12.20;99.90;;;;;;5036115;28;20206;-75
2021/03/21 10:09:02;;;;;;;7.95;2.22;;;12.20;99.90;;;;;;5037891;28;20199;-74
2021/03/21 10:11:39;;;;;;;14.15;2.47;;;12.10;99.90;;;;;;5036929;28;20523;-74
2021/03/21 10:14:27;;;;;;;10.02;1.90;;;12.60;99.90;;;;;;5055727;28;20249;-75
2021/03/21 10:16:55;;;;;;;14.48;2.53;;;12.90;99.90;;;;;;5055107;28;20173;-75
2021/03/21 10:19:53;;;;;;;12.48;2.28;;;13.00;99.90;;;;;;5035942;28;20180;-75
2021/03/21 10:22:25;;;;;;;10.52;2.22;;;12.70;99.90;;;;;;5055314;28;20148;-78
2021/03/21 10:24:53;;;;;;;16.90;2.67;;;12.70;99.90;;;;;;5037143;28;20174;-75
2021/03/21 10:27:22;;;;;;;16.08;2.50;;;12.60;99.90;;;;;;5037905;28;20310;-75
2021/03/21 10:30:06;;;;;;;9.52;2.20;;;12.60;99.90;;;;;;5036971;28;20650;-76
2021/03/21 10:32:36;;;;;;;17.92;2.80;;;12.50;99.90;;;;;;5055299;28;20194;-75
2021/03/21 10:35:04;;;;;;;11.35;2.55;;;12.50;99.90;;;;;;5036327;28;20164;-76
2021/03/21 10:37:50;;;;;;;14.77;3.15;;;12.60;99.90;;;;;;5023284;28;20714;-75
2021/03/21 10:40:24;;;;;;;14.52;3.08;;;12.60;99.90;;;;;;5055280;28;20175;-75
2021/03/21 10:42:54;;;;;;;17.27;2.35;;;12.30;99.90;;;;;;5054679;28;20199;-76
2021/03/21 10:45:32;;;;;;;10.52;3.13;;;12.00;99.90;;;;;;5054401;28;20179;-75
2021/03/21 10:48:16;;;;;;;13.57;2.53;;;11.90;99.90;;;;;;5049620;28;20205;-74
2021/03/21 10:51:03;;;;;;;13.48;2.63;;;12.00;99.90;;;;;;5055515;28;20199;-75
2021/03/21 10:53:38;;;;;;;13.82;2.50;;;12.10;99.90;;;;;;5054492;28;20274;-75
2021/03/21 10:56:05;;;;;;;9.93;2.15;;;12.10;99.90;;;;;;5054418;28;20154;-74
2021/03/21 10:58:38;;;;;;;25.45;3.05;;;12.00;99.90;;;;;;5054558;28;20179;-75
2021/03/21 11:01:26;;;;;;;12.77;2.35;;;11.60;99.90;;;;;;5054638;28;20187;-75
2021/03/21 11:03:57;;;;;;;17.23;2.28;;;11.50;99.90;;;;;;5055025;28;20643;-75
2021/03/21 11:06:32;;;;;;;14.88;2.20;;;11.40;99.90;;;;;;5037063;28;20176;-75
2021/03/21 11:09:09;;;;;;;9.55;3.38;;;11.50;99.90;;;;;;5054388;28;20155;-75
2021/03/21 11:11:38;;;;;;;8.88;2.35;;;11.60;99.90;;;;;;5036445;28;20624;-75
2021/03/21 11:14:28;;;;;;;7.45;2.85;;;12.00;99.90;;;;;;5036062;28;20175;-75
2021/03/21 11:17:10;;;;;;;12.80;2.42;;;12.30;99.90;;;;;;5035740;28;20206;-75
2021/03/21 11:19:44;;;;;;;11.90;2.72;;;12.60;99.90;;;;;;5054469;28;20245;-75
2021/03/21 11:22:20;;;;;;;14.32;2.35;;;12.40;99.90;;;;;;5036089;28;20168;-75
2021/03/21 11:24:46;;;;;;;8.52;2.30;;;12.70;99.90;;;;;;5055083;28;20159;-75
2021/03/21 11:27:22;;;;;;;16.98;2.78;;;12.90;99.90;;;;;;5036235;28;20179;-75
2021/03/21 11:29:48;;;;;;;14.10;2.47;;;12.90;99.90;;;;;;5054353;28;20187;-75
2021/03/21 11:32:18;;;;;;;16.83;2.72;;;12.70;99.90;;;;;;5054369;28;20190;-75
2021/03/21 11:34:57;;;;;;;22.63;2.75;;;12.70;99.90;;;;;;5036238;28;20178;-76
2021/03/21 11:37:38;;;;;;;15.57;3.45;;;12.30;99.90;;;;;;5054675;28;20191;-75
2021/03/21 11:40:23;;;;;;;13.93;2.58;;;12.30;99.90;;;;;;5054350;28;20148;-74
2021/03/21 11:43:19;;;;;;;12.68;2.55;;;11.90;99.90;;;;;;5053738;28;20705;-75
2021/03/21 11:45:45;;;;;;;16.23;2.67;;;12.00;99.90;;;;;;5036455;28;20168;-75
2021/03/21 11:48:34;;;;;;;21.92;3.03;;;12.10;99.90;;;;;;5036636;28;20172;-75
2021/03/21 11:51:01;;;;;;;19.38;3.17;;;12.10;99.90;;;;;;5054230;28;20156;-75
2021/03/21 11:53:31;;;;;;;12.85;2.70;;;12.00;99.90;;;;;;5035737;28;20263;-75
2021/03/21 11:56:06;;;;;;;13.85;2.60;;;11.80;99.90;;;;;;5035800;28;20175;-76
2021/03/21 11:58:40;;;;;;;20.42;3.30;;;11.90;99.90;;;;;;5048153;28;20224;-80
2021/03/21 12:01:17;;;;;;;17.95;3.35;;;11.90;99.90;;;;;;5053883;28;20183;-81
2021/03/21 12:03:52;;;;;;;17.90;2.92;;;12.00;99.90;;;;;;5035833;28;20530;-80
2021/03/21 12:06:49;;;;;;;16.65;3.15;;;12.10;99.90;;;;;;5034940;28;20190;-80
2021/03/21 12:09:34;;;;;;;27.92;3.60;;;11.90;99.90;;;;;;5053647;28;20156;-80
2021/03/21 12:12:05;;;;;;;18.45;2.80;;;11.90;99.90;;;;;;5053508;28;20714;-79
2021/03/21 12:14:31;;;;;;;9.55;2.65;;;11.90;99.90;;;;;;5053699;28;20168;-79
2021/03/21 12:17:17;;;;;;;17.77;3.42;;;12.00;99.90;;;;;;5052791;28;20186;-79
2021/03/21 12:19:43;;;;;;;20.70;3.63;;;11.80;99.90;;;;;;5035097;28;20175;-78
2021/03/21 12:22:47;;;;;;;17.67;3.35;;;11.50;99.90;;;;;;5034869;28;20314;-78
2021/03/21 12:25:30;;;;;;;19.92;4.05;;;11.40;99.90;;;;;;5012375;28;20553;-79
2021/03/21 12:28:12;;;;;;;19.58;4.00;;;11.40;99.90;;;;;;5052964;28;20179;-79
2021/03/21 12:31:08;;;;;;;28.30;3.35;;;11.40;99.90;;;;;;5053369;28;20599;-79
2021/03/21 12:33:36;;;;;;;13.60;3.55;;;11.60;99.90;;;;;;5032548;28;20648;-79
2021/03/21 12:36:08;;;;;;;24.55;4.07;;;12.00;99.90;;;;;;5034504;28;20650;-75
2021/03/21 12:38:42;;;;;;;18.63;3.25;;;12.40;99.90;;;;;;5053192;28;20246;-75
2021/03/21 12:41:47;;;;;;;23.55;3.42;;;12.70;99.90;;;;;;5053116;28;20186;-75
2021/03/21 12:44:22;;;;;;;19.65;3.22;;;12.70;99.90;;;;;;5053196;28;20270;-75
2021/03/21 12:47:13;;;;;;;16.13;2.88;;;12.60;99.90;;;;;;5035119;28;20237;-75
2021/03/21 12:49:50;;;;;;;27.52;2.92;;;12.30;99.90;;;;;;5015290;28;20178;-74
2021/03/21 12:52:22;;;;;;;20.60;3.80;;;12.10;99.90;;;;;;5015365;28;20171;-75
2021/03/21 12:54:49;;;;;;;21.13;4.05;;;11.90;99.90;;;;;;5033259;28;20555;-75
2021/03/21 12:57:15;;;;;;;26.73;3.88;;;12.00;99.90;;;;;;5048346;28;20631;-75
2021/03/21 12:59:48;;;;;;;22.25;3.90;;;11.80;99.90;;;;;;5035208;28;20186;-75
2021/03/21 13:02:35;;;;;;;24.42;3.72;;;11.90;99.90;;;;;;5053039;28;20434;-75
2021/03/21 13:05:06;;;;;;;33.25;4.72;;;12.10;99.90;;;;;;5052351;28;20202;-75
2021/03/21 13:07:31;;;;;;;30.25;4.20;;;12.20;99.90;;;;;;5053078;28;20175;-75
2021/03/21 13:09:58;;;;;;;25.75;4.18;;;12.00;99.90;;;;;;5035128;28;20167;-74
2021/03/21 13:12:24;;;;;;;19.88;3.30;;;11.80;99.90;;;;;;5018671;28;20179;-75
2021/03/21 13:14:51;;;;;;;18.38;3.47;;;12.10;99.90;;;;;;5035027;28;20505;-75
2021/03/21 13:17:18;;;;;;;26.95;4.32;;;12.10;99.90;;;;;;5052485;28;20176;-74
2021/03/21 13:19:44;;;;;;;21.55;3.92;;;12.20;99.90;;;;;;5051927;28;20220;-74
2021/03/21 13:22:10;;;;;;;22.02;4.03;;;12.40;99.90;;;;;;5052241;28;20258;-75
2021/03/21 13:24:36;;;;;;;29.48;4.05;;;12.50;99.90;;;;;;5034715;28;20203;-76
2021/03/21 13:27:03;;;;;;;26.73;4.63;;;12.30;99.90;;;;;;5052187;28;20251;-75
2021/03/21 13:29:30;;;;;;;23.75;4.65;;;12.40;99.90;;;;;;5034466;28;20215;-75
2021/03/21 13:31:55;;;;;;;22.23;4.70;;;12.60;99.90;;;;;;5034570;28;20191;-74